sensor_id;sensor_type;location;lat;lon;timestamp;pressure;altitude;pressure_sealevel;temperature;humidity
59513;BME280;45330;51.634;5.562;2023-01-13T00:01:16;100343.41;;;7.22;100.00
59513;BME280;45330;51.634;5.562;2023-01-13T00:03:42;100357.22;;;7.30;100.00
59513;BME280;45330;51.634;5.562;2023-01-13T00:06:19;100340.84;;;7.16;100.00
59513;BME280;45330;51.634;5.562;2023-01-13T00:08:49;100337.38;;;7.17;100.00
59513;BME280;45330;51.634;5.562;2023-01-13T00:11:15;100351.16;;;7.28;100.00
59513;BME280;45330;51.634;5.562;2023-01-13T00:13:40;100345.16;;;7.25;100.00
59513;BME280;45330;51.634;5.562;2023-01-13T00:16:09;100345.13;;;7.17;100.00
59513;BME280;45330;51.634;5.562;2023-01-13T00:18:35;100319.28;;;6.98;100.00
59513;BME280;45330;51.634;5.562;2023-01-13T00:23:37;100326.19;;;6.95;100.00
59513;BME280;45330;51.634;5.562;2023-01-13T00:26:09;100306.34;;;6.80;100.00
59513;BME280;45330;51.634;5.562;2023-01-13T00:28:35;100307.19;;;6.73;100.00
59513;BME280;45330;51.634;5.562;2023-01-13T00:31:12;100314.94;;;6.73;100.00
59513;BME280;45330;51.634;5.562;2023-01-13T00:33:38;100319.25;;;6.78;100.00
59513;BME280;45330;51.634;5.562;2023-01-13T00:36:05;100307.19;;;6.73;100.00
59513;BME280;45330;51.634;5.562;2023-01-13T00:38:32;100309.78;;;6.69;100.00
59513;BME280;45330;51.634;5.562;2023-01-13T00:41:00;100314.94;;;6.69;100.00
59513;BME280;45330;51.634;5.562;2023-01-13T00:43:28;100285.59;;;6.55;100.00
59513;BME280;45330;51.634;5.562;2023-01-13T00:45:54;100287.34;;;6.55;100.00
59513;BME280;45330;51.634;5.562;2023-01-13T00:48:20;100302.84;;;6.61;100.00
59513;BME280;45330;51.634;5.562;2023-01-13T00:50:53;100304.59;;;6.59;100.00
59513;BME280;45330;51.634;5.562;2023-01-13T00:53:19;100284.72;;;6.44;100.00
59513;BME280;45330;51.634;5.562;2023-01-13T00:55:44;100313.19;;;6.56;100.00
59513;BME280;45330;51.634;5.562;2023-01-13T00:58:10;100307.16;;;6.48;100.00
59513;BME280;45330;51.634;5.562;2023-01-13T01:00:35;100317.47;;;6.52;100.00
59513;BME280;45330;51.634;5.562;2023-01-13T01:03:01;100323.53;;;6.56;100.00
59513;BME280;45330;51.634;5.562;2023-01-13T01:05:26;100307.16;;;6.59;100.00
59513;BME280;45330;51.634;5.562;2023-01-13T01:07:52;100323.53;;;6.58;100.00
59513;BME280;45330;51.634;5.562;2023-01-13T01:10:17;100323.53;;;6.53;100.00
59513;BME280;45330;51.634;5.562;2023-01-13T01:12:42;100319.19;;;6.41;100.00
59513;BME280;45330;51.634;5.562;2023-01-13T01:15:08;100303.72;;;6.43;100.00
59513;BME280;45330;51.634;5.562;2023-01-13T01:17:37;100326.16;;;6.65;100.00
59513;BME280;45330;51.634;5.562;2023-01-13T01:20:03;100330.44;;;6.63;100.00
59513;BME280;45330;51.634;5.562;2023-01-13T01:22:29;100328.69;;;6.61;100.00
59513;BME280;45330;51.634;5.562;2023-01-13T01:24:55;100328.72;;;6.65;100.00
59513;BME280;45330;51.634;5.562;2023-01-13T01:27:20;100335.59;;;6.68;100.00
59513;BME280;45330;51.634;5.562;2023-01-13T01:29:45;100327.88;;;6.69;100.00
59513;BME280;45330;51.634;5.562;2023-01-13T01:32:11;100326.16;;;6.70;100.00
59513;BME280;45330;51.634;5.562;2023-01-13T01:34:36;100304.59;;;6.57;100.00
59513;BME280;45330;51.634;5.562;2023-01-13T01:37:03;100301.13;;;6.55;100.00
59513;BME280;45330;51.634;5.562;2023-01-13T01:39:29;100322.69;;;6.63;100.00
59513;BME280;45330;51.634;5.562;2023-01-13T01:41:54;100321.81;;;6.64;100.00
59513;BME280;45330;51.634;5.562;2023-01-13T01:47:12;100327.81;;;6.51;100.00
59513;BME280;45330;51.634;5.562;2023-01-13T01:49:39;100309.72;;;6.37;100.00
59513;BME280;45330;51.634;5.562;2023-01-13T01:52:10;100325.25;;;6.48;100.00
59513;BME280;45330;51.634;5.562;2023-01-13T01:54:43;100307.16;;;6.37;100.00
59513;BME280;45330;51.634;5.562;2023-01-13T01:57:16;100309.72;;;6.40;100.00
59513;BME280;45330;51.634;5.562;2023-01-13T01:59:42;100298.50;;;6.29;100.00
59513;BME280;45330;51.634;5.562;2023-01-13T02:02:09;100306.22;;;6.23;100.00
59513;BME280;45330;51.634;5.562;2023-01-13T02:04:38;100296.72;;;6.17;100.00
59513;BME280;45330;51.634;5.562;2023-01-13T02:07:05;100320.91;;;6.42;100.00
59513;BME280;45330;51.634;5.562;2023-01-13T02:09:30;100307.09;;;6.34;100.00
59513;BME280;45330;51.634;5.562;2023-01-13T02:11:57;100312.28;;;6.29;100.00
59513;BME280;45330;51.634;5.562;2023-01-13T02:14:41;100315.69;;;6.24;100.00
59513;BME280;45330;51.634;5.562;2023-01-13T02:17:44;100311.38;;;6.23;100.00
59513;BME280;45330;51.634;5.562;2023-01-13T02:31:11;100316.50;;;6.09;100.00
59513;BME280;45330;51.634;5.562;2023-01-13T02:37:05;100298.31;;;5.95;100.00
59513;BME280;45330;51.634;5.562;2023-01-13T02:39:36;100316.50;;;6.06;100.00
59513;BME280;45330;51.634;5.562;2023-01-13T02:42:25;100324.25;;;6.07;100.00
59513;BME280;45330;51.634;5.562;2023-01-13T02:45:15;100324.22;;;6.01;100.00
59513;BME280;45330;51.634;5.562;2023-01-13T02:47:45;100309.59;;;6.00;100.00
59513;BME280;45330;51.634;5.562;2023-01-13T02:50:17;100305.31;;;6.02;100.00
59513;BME280;45330;51.634;5.562;2023-01-13T02:52:53;100291.50;;;6.01;100.00
59513;BME280;45330;51.634;5.562;2023-01-13T02:55:33;100263.91;;;5.87;100.00
59513;BME280;45330;51.634;5.562;2023-01-13T02:58:01;100297.56;;;6.10;100.00
59513;BME280;45330;51.634;5.562;2023-01-13T03:00:28;100257.00;;;5.87;100.00
59513;BME280;45330;51.634;5.562;2023-01-13T03:02:54;100260.53;;;6.05;100.00
59513;BME280;45330;51.634;5.562;2023-01-13T03:05:19;100304.53;;;6.26;100.00
59513;BME280;45330;51.634;5.562;2023-01-13T03:07:52;100292.44;;;6.31;100.00
59513;BME280;45330;51.634;5.562;2023-01-13T03:10:35;100272.63;;;6.24;100.00
59513;BME280;45330;51.634;5.562;2023-01-13T03:18:54;100278.72;;;6.52;100.00
59513;BME280;45330;51.634;5.562;2023-01-13T03:26:49;100271.84;;;6.72;100.00
59513;BME280;45330;51.634;5.562;2023-01-13T03:29:20;100272.72;;;6.75;100.00
59513;BME280;45330;51.634;5.562;2023-01-13T03:31:56;100247.72;;;6.69;100.00
59513;BME280;45330;51.634;5.562;2023-01-13T03:34:28;100232.19;;;6.63;100.00
59513;BME280;45330;51.634;5.562;2023-01-13T03:36:56;100240.81;;;6.68;100.00
59513;BME280;45330;51.634;5.562;2023-01-13T03:39:28;100252.88;;;6.76;100.00
59513;BME280;45330;51.634;5.562;2023-01-13T03:42:02;100231.34;;;6.67;100.00
59513;BME280;45330;51.634;5.562;2023-01-13T03:44:37;100235.66;;;6.72;100.00
59513;BME280;45330;51.634;5.562;2023-01-13T03:47:13;100252.03;;;6.84;100.00
59513;BME280;45330;51.634;5.562;2023-01-13T03:52:27;100244.25;;;6.87;100.00
59513;BME280;45330;51.634;5.562;2023-01-13T03:55:00;100250.31;;;6.90;100.00
59513;BME280;45330;51.634;5.562;2023-01-13T03:57:30;100249.44;;;6.95;100.00
59513;BME280;45330;51.634;5.562;2023-01-13T03:59:59;100239.09;;;6.92;100.00
59513;BME280;45330;51.634;5.562;2023-01-13T04:02:39;100229.59;;;6.97;100.00
59513;BME280;45330;51.634;5.562;2023-01-13T04:05:07;100261.47;;;7.09;100.00
59513;BME280;45330;51.634;5.562;2023-01-13T04:10:07;100263.22;;;7.03;100.00
59513;BME280;45330;51.634;5.562;2023-01-13T04:12:44;100269.25;;;7.04;100.00
59513;BME280;45330;51.634;5.562;2023-01-13T04:15:48;100290.81;;;7.09;100.00
59513;BME280;45330;51.634;5.562;2023-01-13T04:18:17;100291.66;;;7.10;100.00
59513;BME280;45330;51.634;5.562;2023-01-13T04:20:46;100294.25;;;7.10;100.00
59513;BME280;45330;51.634;5.562;2023-01-13T04:23:13;100300.31;;;6.99;100.00
59513;BME280;45330;51.634;5.562;2023-01-13T04:25:43;100302.03;;;6.93;100.00
59513;BME280;45330;51.634;5.562;2023-01-13T04:28:09;100295.13;;;6.87;100.00
59513;BME280;45330;51.634;5.562;2023-01-13T04:30:35;100277.88;;;6.66;100.00
59513;BME280;45330;51.634;5.562;2023-01-13T04:33:01;100280.47;;;6.58;100.00
59513;BME280;45330;51.634;5.562;2023-01-13T04:35:28;100289.94;;;6.56;100.00
59513;BME280;45330;51.634;5.562;2023-01-13T04:37:53;100299.41;;;6.57;100.00
59513;BME280;45330;51.634;5.562;2023-01-13T04:40:19;100294.25;;;6.54;100.00
59513;BME280;45330;51.634;5.562;2023-01-13T04:42:44;100306.28;;;6.52;100.00
59513;BME280;45330;51.634;5.562;2023-01-13T04:45:10;100283.03;;;6.47;100.00
59513;BME280;45330;51.634;5.562;2023-01-13T04:47:35;100300.28;;;6.68;100.00
59513;BME280;45330;51.634;5.562;2023-01-13T04:50:01;100303.75;;;6.74;100.00
59513;BME280;45330;51.634;5.562;2023-01-13T04:52:26;100263.22;;;6.56;100.00
59513;BME280;45330;51.634;5.562;2023-01-13T04:54:52;100275.31;;;6.75;100.00
59513;BME280;45330;51.634;5.562;2023-01-13T04:57:17;100267.53;;;6.72;100.00
59513;BME280;45330;51.634;5.562;2023-01-13T04:59:43;100246.88;;;6.58;100.00
59513;BME280;45330;51.634;5.562;2023-01-13T05:02:08;100270.13;;;6.58;100.00
59513;BME280;45330;51.634;5.562;2023-01-13T05:04:34;100276.13;;;6.46;100.00
59513;BME280;45330;51.634;5.562;2023-01-13T05:06:59;100276.09;;;6.32;100.00
59513;BME280;45330;51.634;5.562;2023-01-13T05:09:25;100277.84;;;6.27;100.00
59513;BME280;45330;51.634;5.562;2023-01-13T05:11:50;100263.16;;;6.15;100.00
59513;BME280;45330;51.634;5.562;2023-01-13T05:14:34;100245.84;;;5.96;100.00
59513;BME280;45330;51.634;5.562;2023-01-13T05:17:21;100277.75;;;6.06;100.00
59513;BME280;45330;51.634;5.562;2023-01-13T05:19:48;100275.16;;;6.04;100.00
59513;BME280;45330;51.634;5.562;2023-01-13T05:22:13;100235.47;;;5.83;100.00
59513;BME280;45330;51.634;5.562;2023-01-13T05:24:58;100282.06;;;6.00;100.00
59513;BME280;45330;51.634;5.562;2023-01-13T05:27:42;100222.47;;;5.62;100.00
59513;BME280;45330;51.634;5.562;2023-01-13T05:30:08;100280.25;;;5.90;100.00
59513;BME280;45330;51.634;5.562;2023-01-13T05:32:34;100286.31;;;5.95;100.00
59513;BME280;45330;51.634;5.562;2023-01-13T05:34:59;100281.09;;;5.89;100.00
59513;BME280;45330;51.634;5.562;2023-01-13T05:37:25;100304.34;;;5.89;100.00
59513;BME280;45330;51.634;5.562;2023-01-13T05:39:52;100271.59;;;5.82;100.00
59513;BME280;45330;51.634;5.562;2023-01-13T05:42:36;100288.00;;;5.92;100.00
59513;BME280;45330;51.634;5.562;2023-01-13T05:45:21;100313.06;;;6.08;100.00
59513;BME280;45330;51.634;5.562;2023-01-13T05:47:46;100307.91;;;6.14;100.00
59513;BME280;45330;51.634;5.562;2023-01-13T05:50:12;100318.28;;;6.28;100.00
59513;BME280;45330;51.634;5.562;2023-01-13T05:52:37;100316.56;;;6.21;100.00
59513;BME280;45330;51.634;5.562;2023-01-13T05:55:03;100301.88;;;6.12;100.00
59513;BME280;45330;51.634;5.562;2023-01-13T05:57:28;100311.38;;;6.18;100.00
59513;BME280;45330;51.634;5.562;2023-01-13T05:59:53;100317.41;;;6.20;100.00
59513;BME280;45330;51.634;5.562;2023-01-13T06:02:19;100308.78;;;6.12;100.00
59513;BME280;45330;51.634;5.562;2023-01-13T06:04:44;100317.28;;;5.97;100.00
59513;BME280;45330;51.634;5.562;2023-01-13T06:07:10;100299.16;;;5.81;100.00
59513;BME280;45330;51.634;5.562;2023-01-13T06:09:35;100331.06;;;5.93;100.00
59513;BME280;45330;51.634;5.562;2023-01-13T06:12:00;100332.78;;;5.91;100.00
59513;BME280;45330;51.634;5.562;2023-01-13T06:14:26;100318.97;;;5.82;100.00
59513;BME280;45330;51.634;5.562;2023-01-13T06:17:09;100321.56;;;5.87;100.00
59513;BME280;45330;51.634;5.562;2023-01-13T06:19:35;100325.88;;;5.87;100.00
59513;BME280;45330;51.634;5.562;2023-01-13T06:22:17;100332.72;;;5.83;100.00
59513;BME280;45330;51.634;5.562;2023-01-13T06:24:48;100337.00;;;5.78;100.00
59513;BME280;45330;51.634;5.562;2023-01-13T06:27:15;100341.28;;;5.70;100.00
59513;BME280;45330;51.634;5.562;2023-01-13T06:29:41;100336.13;;;5.71;100.00
59513;BME280;45330;51.634;5.562;2023-01-13T06:32:23;100307.63;;;5.54;100.00
59513;BME280;45330;51.634;5.562;2023-01-13T06:34:52;100320.53;;;5.56;100.00
59513;BME280;45330;51.634;5.562;2023-01-13T06:37:20;100336.91;;;5.62;100.00
59513;BME280;45330;51.634;5.562;2023-01-13T06:39:52;100341.22;;;5.62;100.00
59513;BME280;45330;51.634;5.562;2023-01-13T06:42:22;100322.28;;;5.61;100.00
59513;BME280;45330;51.634;5.562;2023-01-13T06:45:07;100342.13;;;5.73;100.00
59513;BME280;45330;51.634;5.562;2023-01-13T06:47:32;100341.28;;;5.71;100.00
59513;BME280;45330;51.634;5.562;2023-01-13T06:49:58;100329.22;;;5.67;100.00
59513;BME280;45330;51.634;5.562;2023-01-13T06:52:24;100330.13;;;5.75;100.00
59513;BME280;45330;51.634;5.562;2023-01-13T06:54:51;100292.09;;;5.51;100.00
59513;BME280;45330;51.634;5.562;2023-01-13T06:57:17;100313.72;;;5.65;100.00
59513;BME280;45330;51.634;5.562;2023-01-13T06:59:42;100317.16;;;5.69;100.00
59513;BME280;45330;51.634;5.562;2023-01-13T07:02:07;100339.56;;;5.79;100.00
59513;BME280;45330;51.634;5.562;2023-01-13T07:04:33;100306.81;;;5.63;100.00
59513;BME280;45330;51.634;5.562;2023-01-13T07:06:58;100342.16;;;5.76;100.00
59513;BME280;45330;51.634;5.562;2023-01-13T07:09:24;100342.97;;;5.72;100.00
59513;BME280;45330;51.634;5.562;2023-01-13T07:11:49;100330.97;;;5.73;100.00
59513;BME280;45330;51.634;5.562;2023-01-13T07:14:17;100314.56;;;5.67;100.00
59513;BME280;45330;51.634;5.562;2023-01-13T07:17:01;100328.38;;;5.71;100.00
59513;BME280;45330;51.634;5.562;2023-01-13T07:19:26;100344.72;;;5.78;100.00
59513;BME280;45330;51.634;5.562;2023-01-13T07:21:51;100345.63;;;5.77;100.00
59513;BME280;45330;51.634;5.562;2023-01-13T07:24:18;100356.88;;;5.93;100.00
59513;BME280;45330;51.634;5.562;2023-01-13T07:26:44;100333.56;;;5.79;100.00
59513;BME280;45330;51.634;5.562;2023-01-13T07:29:10;100344.78;;;5.81;100.00
59513;BME280;45330;51.634;5.562;2023-01-13T07:31:35;100346.53;;;5.85;100.00
59513;BME280;45330;51.634;5.562;2023-01-13T07:34:01;100357.72;;;5.89;100.00
59513;BME280;45330;51.634;5.562;2023-01-13T07:36:26;100353.38;;;5.83;100.00
59513;BME280;45330;51.634;5.562;2023-01-13T07:38:52;100343.88;;;5.73;100.00
59513;BME280;45330;51.634;5.562;2023-01-13T07:41:17;100372.31;;;5.83;100.00
59513;BME280;45330;51.634;5.562;2023-01-13T07:44:03;100358.53;;;5.77;100.00
59513;BME280;45330;51.634;5.562;2023-01-13T07:46:31;100364.53;;;5.79;100.00
59513;BME280;45330;51.634;5.562;2023-01-13T07:48:56;100346.41;;;5.68;100.00
59513;BME280;45330;51.634;5.562;2023-01-13T07:51:22;100337.72;;;5.57;100.00
59513;BME280;45330;51.634;5.562;2023-01-13T07:53:47;100385.19;;;5.79;100.00
59513;BME280;45330;51.634;5.562;2023-01-13T07:56:13;100387.78;;;5.82;100.00
59513;BME280;45330;51.634;5.562;2023-01-13T07:58:38;100368.81;;;5.74;100.00
59513;BME280;45330;51.634;5.562;2023-01-13T08:01:11;100368.78;;;5.72;100.00
59513;BME280;45330;51.634;5.562;2023-01-13T08:03:37;100374.03;;;5.84;100.00
59513;BME280;45330;51.634;5.562;2023-01-13T08:06:03;100382.69;;;5.90;100.00
59513;BME280;45330;51.634;5.562;2023-01-13T08:08:29;100374.94;;;5.91;100.00
59513;BME280;45330;51.634;5.562;2023-01-13T08:10:59;100383.53;;;5.87;100.00
59513;BME280;45330;51.634;5.562;2023-01-13T08:13:25;100380.03;;;5.79;100.00
59513;BME280;45330;51.634;5.562;2023-01-13T08:15:52;100394.75;;;5.91;100.00
59513;BME280;45330;51.634;5.562;2023-01-13T08:18:20;100393.06;;;5.97;100.00
59513;BME280;45330;51.634;5.562;2023-01-13T08:20:50;100394.81;;;6.05;100.00
59513;BME280;45330;51.634;5.562;2023-01-13T08:23:17;100382.78;;;6.00;100.00
59513;BME280;45330;51.634;5.562;2023-01-13T08:25:43;100383.63;;;5.99;100.00
59513;BME280;45330;51.634;5.562;2023-01-13T08:28:08;100375.78;;;5.92;100.00
59513;BME280;45330;51.634;5.562;2023-01-13T08:30:34;100405.22;;;6.15;100.00
59513;BME280;45330;51.634;5.562;2023-01-13T08:32:59;100403.53;;;6.17;100.00
59513;BME280;45330;51.634;5.562;2023-01-13T08:35:25;100418.16;;;6.20;100.00
59513;BME280;45330;51.634;5.562;2023-01-13T08:37:51;100405.28;;;6.23;100.00
59513;BME280;45330;51.634;5.562;2023-01-13T08:40:17;100396.63;;;6.18;100.00
59513;BME280;45330;51.634;5.562;2023-01-13T08:42:43;100390.56;;;6.14;100.00
59513;BME280;45330;51.634;5.562;2023-01-13T08:45:09;100413.88;;;6.24;100.00
59513;BME280;45330;51.634;5.562;2023-01-13T08:47:35;100402.63;;;6.14;100.00
59513;BME280;45330;51.634;5.562;2023-01-13T08:50:00;100403.53;;;6.17;100.00
59513;BME280;45330;51.634;5.562;2023-01-13T08:52:26;100405.28;;;6.22;100.00
59513;BME280;45330;51.634;5.562;2023-01-13T08:54:51;100416.53;;;6.34;100.00
59513;BME280;45330;51.634;5.562;2023-01-13T08:57:18;100412.25;;;6.46;100.00
59513;BME280;45330;51.634;5.562;2023-01-13T08:59:44;100415.69;;;6.42;100.00
59513;BME280;45330;51.634;5.562;2023-01-13T09:02:14;100420.91;;;6.56;100.00
59513;BME280;45330;51.634;5.562;2023-01-13T09:04:40;100417.44;;;6.46;100.00
59513;BME280;45330;51.634;5.562;2023-01-13T09:07:05;100388.09;;;6.41;100.00
59513;BME280;45330;51.634;5.562;2023-01-13T09:09:31;100416.59;;;6.62;100.00
59513;BME280;45330;51.634;5.562;2023-01-13T09:11:56;100417.50;;;6.70;100.00
59513;BME280;45330;51.634;5.562;2023-01-13T09:14:40;100410.66;;;6.97;100.00
59513;BME280;45330;51.634;5.562;2023-01-13T09:17:06;100407.25;;;7.08;100.00
59513;BME280;45330;51.634;5.562;2023-01-13T09:19:32;100402.06;;;7.29;100.00
59513;BME280;45330;51.634;5.562;2023-01-13T09:21:57;100421.91;;;7.41;100.00
59513;BME280;45330;51.634;5.562;2023-01-13T09:24:23;100423.63;;;7.41;100.00
59513;BME280;45330;51.634;5.562;2023-01-13T09:26:49;100402.09;;;7.21;100.00
59513;BME280;45330;51.634;5.562;2023-01-13T09:29:15;100413.28;;;7.28;100.00
59513;BME280;45330;51.634;5.562;2023-01-13T09:31:41;100427.09;;;7.33;100.00
59513;BME280;45330;51.634;5.562;2023-01-13T09:34:11;100425.38;;;7.29;100.00
59513;BME280;45330;51.634;5.562;2023-01-13T09:36:56;100443.50;;;7.25;100.00
59513;BME280;45330;51.634;5.562;2023-01-13T09:39:21;100451.22;;;7.09;100.00
59513;BME280;45330;51.634;5.562;2023-01-13T09:41:51;100444.31;;;7.00;100.00
59513;BME280;45330;51.634;5.562;2023-01-13T09:44:46;100448.59;;;6.94;100.00
59513;BME280;45330;51.634;5.562;2023-01-13T09:47:26;100452.91;;;6.92;100.00
59513;BME280;45330;51.634;5.562;2023-01-13T09:50:01;100460.69;;;6.96;100.00
59513;BME280;45330;51.634;5.562;2023-01-13T09:52:27;100472.78;;;7.10;100.00
59513;BME280;45330;51.634;5.562;2023-01-13T09:55:05;100485.75;;;7.16;100.00
59513;BME280;45330;51.634;5.562;2023-01-13T09:57:36;100461.56;;;7.09;100.00
59513;BME280;45330;51.634;5.562;2023-01-13T10:00:09;100497.84;;;7.31;100.00
59513;BME280;45330;51.634;5.562;2023-01-13T10:05:42;100489.22;;;7.49;100.00
59513;BME280;45330;51.634;5.562;2023-01-13T10:08:20;100473.69;;;7.27;100.00
59513;BME280;45330;51.634;5.562;2023-01-13T10:10:53;100478.84;;;7.21;100.00
59513;BME280;45330;51.634;5.562;2023-01-13T10:13:28;100487.47;;;7.29;100.00
59513;BME280;45330;51.634;5.562;2023-01-13T10:19:10;100503.03;;;7.43;100.00
59513;BME280;45330;51.634;5.562;2023-01-13T10:29:48;100510.63;;;6.74;100.00
59513;BME280;45330;51.634;5.562;2023-01-13T10:32:14;100504.50;;;6.56;100.00
59513;BME280;45330;51.634;5.562;2023-01-13T10:34:47;100533.81;;;6.58;100.00
59513;BME280;45330;51.634;5.562;2023-01-13T10:37:24;100522.53;;;6.45;100.00
59513;BME280;45330;51.634;5.562;2023-01-13T10:39:53;100525.06;;;6.34;100.00
59513;BME280;45330;51.634;5.562;2023-01-13T10:42:20;100490.47;;;6.17;100.00
59513;BME280;45330;51.634;5.562;2023-01-13T10:44:52;100520.66;;;6.20;100.00
59513;BME280;45330;51.634;5.562;2023-01-13T10:47:35;100517.22;;;6.21;100.00
59513;BME280;45330;51.634;5.562;2023-01-13T10:52:38;100532.84;;;6.45;100.00
59513;BME280;45330;51.634;5.562;2023-01-13T10:55:32;100542.41;;;6.57;100.00
59513;BME280;45330;51.634;5.562;2023-01-13T10:58:24;100539.00;;;6.67;100.00
59513;BME280;45330;51.634;5.562;2023-01-13T11:00:58;100551.09;;;6.72;100.00
59513;BME280;45330;51.634;5.562;2023-01-13T11:03:24;100524.34;;;6.63;100.00
59513;BME280;45330;51.634;5.562;2023-01-13T11:05:55;100540.75;;;6.72;100.00
59513;BME280;45330;51.634;5.562;2023-01-13T11:08:30;100533.84;;;6.70;100.00
59513;BME280;45330;51.634;5.562;2023-01-13T11:11:35;100545.94;;;6.75;100.00
59513;BME280;45330;51.634;5.562;2023-01-13T11:14:06;100532.94;;;6.62;100.00
59513;BME280;45330;51.634;5.562;2023-01-13T11:16:54;100546.84;;;6.78;100.00
59513;BME280;45330;51.634;5.562;2023-01-13T11:19:23;100569.25;;;6.81;100.00
59513;BME280;45330;51.634;5.562;2023-01-13T11:21:59;100543.41;;;6.82;100.00
59513;BME280;45330;51.634;5.562;2023-01-13T11:24:37;100547.69;;;6.79;100.00
59513;BME280;45330;51.634;5.562;2023-01-13T11:27:18;100537.31;;;6.73;100.00
59513;BME280;45330;51.634;5.562;2023-01-13T11:32:38;100525.31;;;6.87;100.00
59513;BME280;45330;51.634;5.562;2023-01-13T11:35:15;100552.91;;;6.88;100.00
59513;BME280;45330;51.634;5.562;2023-01-13T11:37:48;100557.19;;;6.87;100.00
59513;BME280;45330;51.634;5.562;2023-01-13T11:40:24;100569.28;;;6.85;100.00
59513;BME280;45330;51.634;5.562;2023-01-13T11:43:09;100537.34;;;6.77;100.00
59513;BME280;45330;51.634;5.562;2023-01-13T11:45:48;100566.81;;;7.10;100.00
59513;BME280;45330;51.634;5.562;2023-01-13T11:48:17;100548.75;;;7.29;100.00
59513;BME280;45330;51.634;5.562;2023-01-13T12:04:05;100579.88;;;7.70;100.00
59513;BME280;45330;51.634;5.562;2023-01-13T12:06:37;100578.16;;;7.71;100.00
59513;BME280;45330;51.634;5.562;2023-01-13T12:20:46;100617.81;;;7.48;100.00
59513;BME280;45330;51.634;5.562;2023-01-13T12:23:28;100607.47;;;7.58;100.00
59513;BME280;45330;51.634;5.562;2023-01-13T12:25:58;100614.41;;;7.55;100.00
59513;BME280;45330;51.634;5.562;2023-01-13T12:28:30;100600.56;;;7.43;100.00
59513;BME280;45330;51.634;5.562;2023-01-13T12:31:01;100592.78;;;7.43;100.00
59513;BME280;45330;51.634;5.562;2023-01-13T12:37:07;100618.69;;;7.52;100.00
59513;BME280;45330;51.634;5.562;2023-01-13T12:42:23;100617.00;;;7.66;100.00
59513;BME280;45330;51.634;5.562;2023-01-13T12:47:41;100634.28;;;7.75;100.00
59513;BME280;45330;51.634;5.562;2023-01-13T12:52:59;100622.16;;;7.52;100.00
59513;BME280;45330;51.634;5.562;2023-01-13T12:55:26;100647.22;;;7.67;100.00
59513;BME280;45330;51.634;5.562;2023-01-13T13:05:43;100668.84;;;7.85;100.00
59513;BME280;45330;51.634;5.562;2023-01-13T13:14:02;100680.06;;;7.87;100.00
59513;BME280;45330;51.634;5.562;2023-01-13T13:24:41;100678.41;;;8.07;100.00
59513;BME280;45330;51.634;5.562;2023-01-13T13:35:35;100701.66;;;7.83;100.00
59513;BME280;45330;51.634;5.562;2023-01-13T13:41:22;100703.34;;;7.73;100.00
59513;BME280;45330;51.634;5.562;2023-01-13T13:44:13;100727.53;;;7.78;100.00
59513;BME280;45330;51.634;5.562;2023-01-13T13:47:01;100722.38;;;7.80;100.00
59513;BME280;45330;51.634;5.562;2023-01-13T13:49:38;100718.06;;;7.85;100.00
59513;BME280;45330;51.634;5.562;2023-01-13T13:52:15;100709.41;;;7.77;100.00
59513;BME280;45330;51.634;5.562;2023-01-13T13:54:44;100735.31;;;7.83;100.00
59513;BME280;45330;51.634;5.562;2023-01-13T13:57:36;100733.59;;;7.80;100.00
59513;BME280;45330;51.634;5.562;2023-01-13T14:00:12;100741.38;;;7.83;100.00
59513;BME280;45330;51.634;5.562;2023-01-13T14:05:33;100748.28;;;7.80;100.00
59513;BME280;45330;51.634;5.562;2023-01-13T14:08:11;100773.34;;;7.93;100.00
59513;BME280;45330;51.634;5.562;2023-01-13T14:10:39;100759.53;;;7.91;100.00
59513;BME280;45330;51.634;5.562;2023-01-13T14:13:37;100772.53;;;8.06;100.00
59513;BME280;45330;51.634;5.562;2023-01-13T14:16:05;100781.22;;;8.16;100.00
59513;BME280;45330;51.634;5.562;2023-01-13T14:18:33;100776.88;;;8.18;100.00
59513;BME280;45330;51.634;5.562;2023-01-13T14:21:18;100791.59;;;8.21;100.00
59513;BME280;45330;51.634;5.562;2023-01-13T14:24:03;100763.94;;;8.14;100.00
59513;BME280;45330;51.634;5.562;2023-01-13T14:26:38;100759.53;;;7.97;100.00
59513;BME280;45330;51.634;5.562;2023-01-13T14:29:05;100793.28;;;8.00;100.00
59513;BME280;45330;51.634;5.562;2023-01-13T14:31:31;100788.03;;;7.85;100.00
59513;BME280;45330;51.634;5.562;2023-01-13T14:34:00;100802.72;;;7.90;100.00
59513;BME280;45330;51.634;5.562;2023-01-13T14:46:49;100831.19;;;7.87;100.00
59513;BME280;45330;51.634;5.562;2023-01-13T14:49:35;100810.38;;;7.72;100.00
59513;BME280;45330;51.634;5.562;2023-01-13T14:52:11;100837.25;;;7.83;100.00
59513;BME280;45330;51.634;5.562;2023-01-13T14:57:26;100825.91;;;7.69;100.00
59513;BME280;45330;51.634;5.562;2023-01-13T15:10:29;100844.88;;;7.65;100.00
59513;BME280;45330;51.634;5.562;2023-01-13T15:12:57;100849.22;;;7.66;100.00
59513;BME280;45330;51.634;5.562;2023-01-13T15:15:37;100858.75;;;7.68;100.00
59513;BME280;45330;51.634;5.562;2023-01-13T15:18:14;100871.72;;;7.73;100.00
59513;BME280;45330;51.634;5.562;2023-01-13T15:20:41;100866.50;;;7.67;100.00
59513;BME280;45330;51.634;5.562;2023-01-13T15:23:07;100899.34;;;7.76;100.00
59513;BME280;45330;51.634;5.562;2023-01-13T15:25:35;100908.78;;;7.67;100.00
59513;BME280;45330;51.634;5.562;2023-01-13T15:28:02;100898.34;;;7.53;100.00
59513;BME280;45330;51.634;5.562;2023-01-13T15:30:28;100895.63;;;7.36;100.00
59513;BME280;45330;51.634;5.562;2023-01-13T15:32:55;100921.59;;;7.44;100.00
59513;BME280;45330;51.634;5.562;2023-01-13T15:35:23;100923.34;;;7.47;100.00
59513;BME280;45330;51.634;5.562;2023-01-13T15:37:49;100905.22;;;7.47;100.00
59513;BME280;45330;51.634;5.562;2023-01-13T15:40:21;100913.84;;;7.49;100.00